Vega B — 2EBW8 — position and weather

sailwx.info

Track history (hours):
 
Tides and Currents Weather Stations Pressure Air Temp Water Temp Dewpoint Dewpoint Depression Visibility Wind Speed Wind Dir Waves Ship Positions

Vega B

Last reported at 2017-Sep-04 20:57 UTC. Time now 2017-Nov-24 18:45 UTC.
Position N 37°21' E 025°55'.
Warning: this ship's position is months out of date.

Length 14 m.

Type: Sailing vessel. MMSI: 235083816.

Date/timePositionNaut miles runAvg speedWind from/ knotsBaromVisibWave heightAir tempDewpointWater temp
2017-Sep-04 20:57N 37°21' E 025°55'3 7.2
2017-Sep-04 20:30N 37°22' E 025°51'13 7.4
2017-Sep-04 18:44N 37°27' E 025°35'2 7.7
2017-Sep-04 18:31N 37°26' E 025°33'4 7.5
2017-Sep-04 18:00N 37°25' E 025°28'4 7.0
2017-Sep-04 17:30N 37°24' E 025°24'3 5.3
2017-Sep-04 17:00N 37°25' E 025°21'0 0.0
2017-Sep-04 16:30N 37°25' E 025°21'0 0.2
2017-Sep-04 16:00N 37°25' E 025°21'0 0.1
2017-Sep-04 15:30N 37°25' E 025°21'0 0.0
2017-Sep-04 14:58N 37°25' E 025°21'1 2.5
2017-Sep-04 14:30N 37°25' E 025°19'0 0.0
2017-Sep-04 13:57N 37°25' E 025°19'0 0.0
2017-Sep-04 13:30N 37°25' E 025°19'0 0.0
2017-Sep-04 13:00N 37°25' E 025°19'0 0.0
2017-Sep-04 12:30N 37°25' E 025°19'0 0.0
2017-Sep-04 12:00N 37°25' E 025°19'0 0.0
2017-Sep-04 11:30N 37°25' E 025°19'0 0.0
2017-Sep-04 11:00N 37°25' E 025°19'0 0.0
2017-Sep-04 10:30N 37°25' E 025°19'0 0.0
2017-Sep-04 09:54N 37°25' E 025°19'0 0.0
2017-Sep-04 09:30N 37°25' E 025°19'0 0.1
2017-Sep-04 09:00N 37°25' E 025°19'1 2.1
2017-Sep-04 08:30N 37°25' E 025°20'2 4.8
2017-Sep-04 08:00N 37°23' E 025°19'3 6.3
2017-Sep-04 07:30N 37°20' E 025°17'3 6.6
2017-Sep-04 07:00N 37°17' E 025°15'3 6.9
2017-Sep-04 06:30N 37°14' E 025°13'11 6.5
2017-Sep-04 04:45N 37°04' E 025°06'1 2.1
2017-Sep-04 04:30N 37°03' E 025°07'0 0.0
2017-Sep-04 03:54N 37°03' E 025°07'0 0.0
2017-Sep-04 03:30N 37°03' E 025°07'0 0.0
2017-Sep-04 03:00N 37°03' E 025°07'0 0.0
2017-Sep-04 02:30N 37°03' E 025°07'0 0.0
2017-Sep-04 02:00N 37°03' E 025°07'0 0.0
2017-Sep-04 01:30N 37°03' E 025°07'0 0.0
2017-Sep-04 01:00N 37°03' E 025°07'0 0.0
2017-Sep-04 00:18N 37°03' E 025°07'0 0.0
2017-Sep-04 00:00N 37°03' E 025°07'0 0.0
2017-Sep-03 23:30N 37°03' E 025°07'0 0.0
2017-Sep-03 22:54N 37°03' E 025°07'0 0.0
2017-Sep-03 22:24N 37°03' E 025°07'0 0.0
2017-Sep-03 21:57N 37°03' E 025°07'0 0.0
2017-Sep-03 21:30N 37°03' E 025°07'0 0.0
2017-Sep-03 21:00N 37°03' E 025°07'0 0.0
2017-Sep-03 20:30N 37°03' E 025°07'0 0.0
2017-Sep-03 19:54N 37°03' E 025°07'0 0.0
2017-Sep-03 19:30N 37°03' E 025°07'0 0.0
2017-Sep-03 19:00N 37°03' E 025°07'0 0.0
2017-Sep-03 18:24N 37°03' E 025°07'0 0.0
2017-Sep-03 18:00N 37°03' E 025°07'0 0.0
2017-Sep-03 17:27N 37°03' E 025°07'0 0.0
2017-Sep-03 16:54N 37°03' E 025°07'0 0.0
2017-Sep-03 16:21N 37°03' E 025°07'0 0.0
2017-Sep-03 16:00N 37°03' E 025°07'0 0.0
2017-Sep-03 15:30N 37°03' E 025°07'0 0.0
2017-Sep-03 15:00N 37°03' E 025°07'2 1.7
2017-Sep-03 14:00N 37°02' E 025°05'0 0.0
2017-Sep-03 13:24N 37°02' E 025°05'3 0.5
2017-Sep-03 06:47N 36°59' E 025°05'3 7.1
2017-Sep-03 06:25N 37°02' E 025°05'1 1.6
2017-Sep-03 06:00N 37°02' E 025°05'0 0.0
2017-Sep-03 05:30N 37°02' E 025°05'0 0.0
2017-Sep-03 05:00N 37°02' E 025°05'0 0.0
2017-Sep-03 04:27N 37°02' E 025°05'0 0.0
2017-Sep-03 04:00N 37°02' E 025°05'0 0.0
2017-Sep-03 03:30N 37°02' E 025°05'0 0.0
2017-Sep-03 03:00N 37°02' E 025°05'0 0.0
2017-Sep-03 02:30N 37°02' E 025°05'0 0.0
2017-Sep-03 02:00N 37°02' E 025°05'0 0.0
2017-Sep-03 01:30N 37°02' E 025°05'0 0.0
2017-Sep-03 01:00N 37°02' E 025°05'0 0.0
2017-Sep-03 00:30N 37°02' E 025°05'0 0.0
2017-Sep-02 23:54N 37°02' E 025°05'0 0.0
2017-Sep-02 23:30N 37°02' E 025°05'0 0.0
2017-Sep-02 22:57N 37°02' E 025°05'0 0.0
2017-Sep-02 22:30N 37°02' E 025°05'0 0.0
2017-Sep-02 22:00N 37°02' E 025°05'0 0.0
2017-Sep-02 21:30N 37°02' E 025°05'0 0.0
2017-Sep-02 21:00N 37°02' E 025°05'0 0.0
2017-Sep-02 20:30N 37°02' E 025°05'0 0.0
2017-Sep-02 20:00N 37°02' E 025°05'0 0.0
2017-Sep-02 19:30N 37°02' E 025°05'0 0.0
2017-Sep-02 19:00N 37°02' E 025°05'0 0.0
2017-Sep-02 18:30N 37°02' E 025°05'0 0.0
2017-Sep-02 18:00N 37°02' E 025°05'0 0.0
2017-Sep-02 17:27N 37°02' E 025°05'0 0.0
2017-Sep-02 16:57N 37°02' E 025°05'  
2017-Aug-29 06:47N 37°02' E 025°05'2 6.8
2017-Aug-29 06:30N 37°03' E 025°06'9 8.0
2017-Aug-29 05:25N 37°11' E 025°11'4 8.5
2017-Aug-29 05:00N 37°14' E 025°14'4 8.3
2017-Aug-29 04:30N 37°18' E 025°16'4 8.2
2017-Aug-29 04:00N 37°21' E 025°18'4 6.2
2017-Aug-29 03:26N 37°25' E 025°19'0 0.0
2017-Aug-29 03:00N 37°25' E 025°19'0 0.2
2017-Aug-29 02:29N 37°25' E 025°19'0 0.0
2017-Aug-29 01:59N 37°25' E 025°19'0 0.0
2017-Aug-29 01:29N 37°25' E 025°19'0 0.0
2017-Aug-29 00:59N 37°25' E 025°19'0 0.0
2017-Aug-29 00:29N 37°25' E 025°19'0 0.0
2017-Aug-28 23:59N 37°25' E 025°19'0 0.0
2017-Aug-28 23:29N 37°25' E 025°19'0 0.0
2017-Aug-28 22:59N 37°25' E 025°19'0 0.0
2017-Aug-28 22:29N 37°25' E 025°19'0 0.0
2017-Aug-28 21:59N 37°25' E 025°19'0 0.0
2017-Aug-28 21:29N 37°25' E 025°19'0 0.0
2017-Aug-28 20:50N 37°25' E 025°19'0 0.0
2017-Aug-28 20:29N 37°25' E 025°19'0 0.0
2017-Aug-28 19:59N 37°25' E 025°19'0 0.0
2017-Aug-28 19:29N 37°25' E 025°19'0 0.0
2017-Aug-28 18:50N 37°25' E 025°19'0 0.0
2017-Aug-28 18:26N 37°25' E 025°19'0 0.0
2017-Aug-28 17:59N 37°25' E 025°19'0 0.0
2017-Aug-28 17:26N 37°25' E 025°19'0 0.0
2017-Aug-28 16:53N 37°25' E 025°19'0 0.0
2017-Aug-28 16:29N 37°25' E 025°19'0 0.0
2017-Aug-28 15:59N 37°25' E 025°19'0 0.0
2017-Aug-28 15:29N 37°25' E 025°19'0 0.0
2017-Aug-28 14:56N 37°25' E 025°19'0 0.0
2017-Aug-28 14:26N 37°25' E 025°19'0 0.0
2017-Aug-28 13:59N 37°25' E 025°19'0 0.0
2017-Aug-28 13:20N 37°25' E 025°19'0 0.0
2017-Aug-28 12:56N 37°25' E 025°19'0 0.0
2017-Aug-28 12:29N 37°25' E 025°19'0 0.0
2017-Aug-28 11:53N 37°25' E 025°19'0 0.0
2017-Aug-28 11:29N 37°25' E 025°19'0 0.0
2017-Aug-28 10:59N 37°25' E 025°19'0 0.0
2017-Aug-28 10:29N 37°25' E 025°19'0 0.0
2017-Aug-28 09:59N 37°25' E 025°19'0 0.0
2017-Aug-28 09:29N 37°25' E 025°19'0 0.0
2017-Aug-28 08:59N 37°25' E 025°19'0 0.0
2017-Aug-28 08:23N 37°25' E 025°19'0 0.0
2017-Aug-28 07:59N 37°25' E 025°19'0 0.0
2017-Aug-28 07:29N 37°25' E 025°19'0 0.0
2017-Aug-28 06:56N 37°25' E 025°19'0 0.0
2017-Aug-28 03:17N 37°25' E 025°19'0 0.0
2017-Aug-28 02:59N 37°25' E 025°19'0 0.0
2017-Aug-28 02:26N 37°25' E 025°19'0 0.0
2017-Aug-28 01:59N 37°25' E 025°19'0 0.0
2017-Aug-28 01:29N 37°25' E 025°19'0 0.0
2017-Aug-28 00:56N 37°25' E 025°19'0 0.0
2017-Aug-28 00:29N 37°25' E 025°19'0 0.0
2017-Aug-27 23:59N 37°25' E 025°19'0 0.0
2017-Aug-27 23:29N 37°25' E 025°19'0 0.0
2017-Aug-27 22:59N 37°25' E 025°19'0 0.0
2017-Aug-27 22:29N 37°25' E 025°19'0 0.0
2017-Aug-27 21:59N 37°25' E 025°19'0 0.0
2017-Aug-27 21:29N 37°25' E 025°19'0 0.0
2017-Aug-27 20:59N 37°25' E 025°19'0 0.0
2017-Aug-27 20:29N 37°25' E 025°19'0 0.0
2017-Aug-27 19:59N 37°25' E 025°19'0 0.0
2017-Aug-27 19:26N 37°25' E 025°19'0 0.0
2017-Aug-27 18:59N 37°25' E 025°19'0 0.0
2017-Aug-27 18:29N 37°25' E 025°19'0 0.0
2017-Aug-27 17:59N 37°25' E 025°19'0 0.0
2017-Aug-27 17:29N 37°25' E 025°19'0 0.0
2017-Aug-27 16:56N 37°25' E 025°19'0 0.0
2017-Aug-27 16:29N 37°25' E 025°19'0 0.0
2017-Aug-27 15:59N 37°25' E 025°19'0 0.0
2017-Aug-27 15:29N 37°25' E 025°19'0 0.0
2017-Aug-27 14:59N 37°25' E 025°19'0 0.0
2017-Aug-27 14:29N 37°25' E 025°19'0 0.0
2017-Aug-27 13:59N 37°25' E 025°19'0 0.0
2017-Aug-27 13:29N 37°25' E 025°19'0 0.0
2017-Aug-27 12:59N 37°25' E 025°19'0 0.0
2017-Aug-27 12:29N 37°25' E 025°19'0 0.0
2017-Aug-27 11:56N 37°25' E 025°19'0 0.0
2017-Aug-27 11:26N 37°25' E 025°19'0 0.0
2017-Aug-27 10:59N 37°25' E 025°19'0 0.0
2017-Aug-27 10:26N 37°25' E 025°19'0 0.0
2017-Aug-27 09:59N 37°25' E 025°19'0 0.0
2017-Aug-27 09:29N 37°25' E 025°19'0 0.0
2017-Aug-27 08:56N 37°25' E 025°19'0 0.0
2017-Aug-27 08:29N 37°25' E 025°19'0 0.0
2017-Aug-27 07:59N 37°25' E 025°19'0 0.0
2017-Aug-27 07:29N 37°25' E 025°19'0 0.0
2017-Aug-27 06:59N 37°25' E 025°19'0 0.0
2017-Aug-27 06:29N 37°25' E 025°19'0 0.0
2017-Aug-27 05:56N 37°25' E 025°19'0 0.0
2017-Aug-27 05:29N 37°25' E 025°19'0 0.0
2017-Aug-27 04:56N 37°25' E 025°19'0 0.0
2017-Aug-27 04:26N 37°25' E 025°19'0 0.0
2017-Aug-27 03:59N 37°25' E 025°19'0 0.0
2017-Aug-27 03:29N 37°25' E 025°19'0 0.0
2017-Aug-27 02:59N 37°25' E 025°19'0 0.0
2017-Aug-27 02:26N 37°25' E 025°19'0 0.0
2017-Aug-27 01:59N 37°25' E 025°19'0 0.0
2017-Aug-27 01:29N 37°25' E 025°19'0 0.0
2017-Aug-27 00:56N 37°25' E 025°19'0 0.0
2017-Aug-27 00:29N 37°25' E 025°19'0 0.0
2017-Aug-26 23:59N 37°25' E 025°19'0 0.0
2017-Aug-26 23:29N 37°25' E 025°19'0 0.0
2017-Aug-26 22:59N 37°25' E 025°19'0 0.0
2017-Aug-26 22:29N 37°25' E 025°19'0 0.0
2017-Aug-26 21:59N 37°25' E 025°19'0 0.0
2017-Aug-26 21:29N 37°25' E 025°19'0 0.0
2017-Aug-26 20:56N 37°25' E 025°19'0 0.0
2017-Aug-26 20:29N 37°25' E 025°19'0 0.0
2017-Aug-26 19:59N 37°25' E 025°19'0 0.0
2017-Aug-26 19:29N 37°25' E 025°19'0 0.0
2017-Aug-26 18:59N 37°25' E 025°19'0 0.0
2017-Aug-26 18:26N 37°25' E 025°19'0 0.0
2017-Aug-26 17:59N 37°25' E 025°19'0 0.0
2017-Aug-26 17:29N 37°25' E 025°19'0 0.0
2017-Aug-26 16:59N 37°25' E 025°19'0 0.0
2017-Aug-26 16:29N 37°25' E 025°19'0 0.0
2017-Aug-26 15:59N 37°25' E 025°19'0 0.0
2017-Aug-26 15:29N 37°25' E 025°19'0 0.0
2017-Aug-26 14:59N 37°25' E 025°19'0 0.0
2017-Aug-26 13:59N 37°25' E 025°19'0 0.0
2017-Aug-26 13:29N 37°25' E 025°19'0 0.0
2017-Aug-26 12:59N 37°25' E 025°19'0 0.0
2017-Aug-26 12:29N 37°25' E 025°19'0 0.0
2017-Aug-26 11:59N 37°25' E 025°19'0 0.0
2017-Aug-26 11:26N 37°25' E 025°19'0 0.0
2017-Aug-26 10:59N 37°25' E 025°19'0 0.0
2017-Aug-26 10:29N 37°25' E 025°19'0 0.0
2017-Aug-26 09:59N 37°25' E 025°19'0 0.0
2017-Aug-26 09:29N 37°25' E 025°19'0 0.0
2017-Aug-26 08:59N 37°25' E 025°19'0 0.0
2017-Aug-26 08:29N 37°25' E 025°19'0 0.0
2017-Aug-26 07:59N 37°25' E 025°19'0 0.0
2017-Aug-26 07:29N 37°25' E 025°19'0 0.0
2017-Aug-26 06:59N 37°25' E 025°19'0 0.0
2017-Aug-26 06:29N 37°25' E 025°19'0 0.0
2017-Aug-26 05:59N 37°25' E 025°19'0 0.0
2017-Aug-26 05:29N 37°25' E 025°19'0 0.0
2017-Aug-26 04:59N 37°25' E 025°19'0 0.0
2017-Aug-26 04:29N 37°25' E 025°19'0 0.0
2017-Aug-26 03:59N 37°25' E 025°19'0 0.0
2017-Aug-26 03:29N 37°25' E 025°19'0 0.0
2017-Aug-26 02:47N 37°25' E 025°19'0 0.0
2017-Aug-26 02:23N 37°25' E 025°19'0 0.0
2017-Aug-26 01:59N 37°25' E 025°19'0 0.0
2017-Aug-26 01:29N 37°25' E 025°19'0 0.0
2017-Aug-26 00:59N 37°25' E 025°19'0 0.0
2017-Aug-26 00:29N 37°25' E 025°19'0 0.0
2017-Aug-25 23:59N 37°25' E 025°19'0 0.0
2017-Aug-25 23:29N 37°25' E 025°19'0 0.0
2017-Aug-25 22:59N 37°25' E 025°19'0 0.0
2017-Aug-25 22:29N 37°25' E 025°19'0 0.0
2017-Aug-25 21:53N 37°25' E 025°19'0 0.0
2017-Aug-25 21:29N 37°25' E 025°19'  
Track history (hours):
 
Tides and Currents Weather Stations Pressure Air Temp Water Temp Dewpoint Dewpoint Depression Visibility Wind Speed Wind Dir Waves Ship Positions

Vega B

Last reported at 2017-Sep-04 20:57 UTC. Time now 2017-Nov-24 18:45 UTC.
Position N 37°21' E 025°55'.
Warning: this ship's position is months out of date.

Length 14 m.

Type: Sailing vessel. MMSI: 235083816.

Date/timePositionNaut miles runAvg speedWind from/ knotsBaromVisibWave heightAir tempDewpointWater temp
2017-Sep-04 20:57N 37°21' E 025°55'3 7.2
2017-Sep-04 20:30N 37°22' E 025°51'13 7.4
2017-Sep-04 18:44N 37°27' E 025°35'2 7.7
2017-Sep-04 18:31N 37°26' E 025°33'4 7.5
2017-Sep-04 18:00N 37°25' E 025°28'4 7.0
2017-Sep-04 17:30N 37°24' E 025°24'3 5.3
2017-Sep-04 17:00N 37°25' E 025°21'0 0.0
2017-Sep-04 16:30N 37°25' E 025°21'0 0.2
2017-Sep-04 16:00N 37°25' E 025°21'0 0.1
2017-Sep-04 15:30N 37°25' E 025°21'0 0.0
2017-Sep-04 14:58N 37°25' E 025°21'1 2.5
2017-Sep-04 14:30N 37°25' E 025°19'0 0.0
2017-Sep-04 13:57N 37°25' E 025°19'0 0.0
2017-Sep-04 13:30N 37°25' E 025°19'0 0.0
2017-Sep-04 13:00N 37°25' E 025°19'0 0.0
2017-Sep-04 12:30N 37°25' E 025°19'0 0.0
2017-Sep-04 12:00N 37°25' E 025°19'0 0.0
2017-Sep-04 11:30N 37°25' E 025°19'0 0.0
2017-Sep-04 11:00N 37°25' E 025°19'0 0.0
2017-Sep-04 10:30N 37°25' E 025°19'0 0.0
2017-Sep-04 09:54N 37°25' E 025°19'0 0.0
2017-Sep-04 09:30N 37°25' E 025°19'0 0.1
2017-Sep-04 09:00N 37°25' E 025°19'1 2.1
2017-Sep-04 08:30N 37°25' E 025°20'2 4.8
2017-Sep-04 08:00N 37°23' E 025°19'3 6.3
2017-Sep-04 07:30N 37°20' E 025°17'3 6.6
2017-Sep-04 07:00N 37°17' E 025°15'3 6.9
2017-Sep-04 06:30N 37°14' E 025°13'11 6.5
2017-Sep-04 04:45N 37°04' E 025°06'1 2.1
2017-Sep-04 04:30N 37°03' E 025°07'0 0.0
2017-Sep-04 03:54N 37°03' E 025°07'0 0.0
2017-Sep-04 03:30N 37°03' E 025°07'0 0.0
2017-Sep-04 03:00N 37°03' E 025°07'0 0.0
2017-Sep-04 02:30N 37°03' E 025°07'0 0.0
2017-Sep-04 02:00N 37°03' E 025°07'0 0.0
2017-Sep-04 01:30N 37°03' E 025°07'0 0.0
2017-Sep-04 01:00N 37°03' E 025°07'0 0.0
2017-Sep-04 00:18N 37°03' E 025°07'0 0.0
2017-Sep-04 00:00N 37°03' E 025°07'0 0.0
2017-Sep-03 23:30N 37°03' E 025°07'0 0.0
2017-Sep-03 22:54N 37°03' E 025°07'0 0.0
2017-Sep-03 22:24N 37°03' E 025°07'0 0.0
2017-Sep-03 21:57N 37°03' E 025°07'0 0.0
2017-Sep-03 21:30N 37°03' E 025°07'0 0.0
2017-Sep-03 21:00N 37°03' E 025°07'0 0.0
2017-Sep-03 20:30N 37°03' E 025°07'0 0.0
2017-Sep-03 19:54N 37°03' E 025°07'0 0.0
2017-Sep-03 19:30N 37°03' E 025°07'0 0.0
2017-Sep-03 19:00N 37°03' E 025°07'0 0.0
2017-Sep-03 18:24N 37°03' E 025°07'0 0.0
2017-Sep-03 18:00N 37°03' E 025°07'0 0.0
2017-Sep-03 17:27N 37°03' E 025°07'0 0.0
2017-Sep-03 16:54N 37°03' E 025°07'0 0.0
2017-Sep-03 16:21N 37°03' E 025°07'0 0.0
2017-Sep-03 16:00N 37°03' E 025°07'0 0.0
2017-Sep-03 15:30N 37°03' E 025°07'0 0.0
2017-Sep-03 15:00N 37°03' E 025°07'2 1.7
2017-Sep-03 14:00N 37°02' E 025°05'0 0.0
2017-Sep-03 13:24N 37°02' E 025°05'3 0.5
2017-Sep-03 06:47N 36°59' E 025°05'3 7.1
2017-Sep-03 06:25N 37°02' E 025°05'1 1.6
2017-Sep-03 06:00N 37°02' E 025°05'0 0.0
2017-Sep-03 05:30N 37°02' E 025°05'0 0.0
2017-Sep-03 05:00N 37°02' E 025°05'0 0.0
2017-Sep-03 04:27N 37°02' E 025°05'0 0.0
2017-Sep-03 04:00N 37°02' E 025°05'0 0.0
2017-Sep-03 03:30N 37°02' E 025°05'0 0.0
2017-Sep-03 03:00N 37°02' E 025°05'0 0.0
2017-Sep-03 02:30N 37°02' E 025°05'0 0.0
2017-Sep-03 02:00N 37°02' E 025°05'0 0.0
2017-Sep-03 01:30N 37°02' E 025°05'0 0.0
2017-Sep-03 01:00N 37°02' E 025°05'0 0.0
2017-Sep-03 00:30N 37°02' E 025°05'0 0.0
2017-Sep-02 23:54N 37°02' E 025°05'0 0.0
2017-Sep-02 23:30N 37°02' E 025°05'0 0.0
2017-Sep-02 22:57N 37°02' E 025°05'0 0.0
2017-Sep-02 22:30N 37°02' E 025°05'0 0.0
2017-Sep-02 22:00N 37°02' E 025°05'0 0.0
2017-Sep-02 21:30N 37°02' E 025°05'0 0.0
2017-Sep-02 21:00N 37°02' E 025°05'0 0.0
2017-Sep-02 20:30N 37°02' E 025°05'0 0.0
2017-Sep-02 20:00N 37°02' E 025°05'0 0.0
2017-Sep-02 19:30N 37°02' E 025°05'0 0.0
2017-Sep-02 19:00N 37°02' E 025°05'0 0.0
2017-Sep-02 18:30N 37°02' E 025°05'0 0.0
2017-Sep-02 18:00N 37°02' E 025°05'0 0.0
2017-Sep-02 17:27N 37°02' E 025°05'0 0.0
2017-Sep-02 16:57N 37°02' E 025°05'  
2017-Aug-29 06:47N 37°02' E 025°05'2 6.8
2017-Aug-29 06:30N 37°03' E 025°06'9 8.0
2017-Aug-29 05:25N 37°11' E 025°11'4 8.5
2017-Aug-29 05:00N 37°14' E 025°14'4 8.3
2017-Aug-29 04:30N 37°18' E 025°16'4 8.2
2017-Aug-29 04:00N 37°21' E 025°18'4 6.2
2017-Aug-29 03:26N 37°25' E 025°19'0 0.0
2017-Aug-29 03:00N 37°25' E 025°19'0 0.2
2017-Aug-29 02:29N 37°25' E 025°19'0 0.0
2017-Aug-29 01:59N 37°25' E 025°19'0 0.0
2017-Aug-29 01:29N 37°25' E 025°19'0 0.0
2017-Aug-29 00:59N 37°25' E 025°19'0 0.0
2017-Aug-29 00:29N 37°25' E 025°19'0 0.0
2017-Aug-28 23:59N 37°25' E 025°19'0 0.0
2017-Aug-28 23:29N 37°25' E 025°19'0 0.0
2017-Aug-28 22:59N 37°25' E 025°19'0 0.0
2017-Aug-28 22:29N 37°25' E 025°19'0 0.0
2017-Aug-28 21:59N 37°25' E 025°19'0 0.0
2017-Aug-28 21:29N 37°25' E 025°19'0 0.0
2017-Aug-28 20:50N 37°25' E 025°19'0 0.0
2017-Aug-28 20:29N 37°25' E 025°19'0 0.0
2017-Aug-28 19:59N 37°25' E 025°19'0 0.0
2017-Aug-28 19:29N 37°25' E 025°19'0 0.0
2017-Aug-28 18:50N 37°25' E 025°19'0 0.0
2017-Aug-28 18:26N 37°25' E 025°19'0 0.0
2017-Aug-28 17:59N 37°25' E 025°19'0 0.0
2017-Aug-28 17:26N 37°25' E 025°19'0 0.0
2017-Aug-28 16:53N 37°25' E 025°19'0 0.0
2017-Aug-28 16:29N 37°25' E 025°19'0 0.0
2017-Aug-28 15:59N 37°25' E 025°19'0 0.0
2017-Aug-28 15:29N 37°25' E 025°19'0 0.0
2017-Aug-28 14:56N 37°25' E 025°19'0 0.0
2017-Aug-28 14:26N 37°25' E 025°19'0 0.0
2017-Aug-28 13:59N 37°25' E 025°19'0 0.0
2017-Aug-28 13:20N 37°25' E 025°19'0 0.0
2017-Aug-28 12:56N 37°25' E 025°19'0 0.0
2017-Aug-28 12:29N 37°25' E 025°19'0 0.0
2017-Aug-28 11:53N 37°25' E 025°19'0 0.0
2017-Aug-28 11:29N 37°25' E 025°19'0 0.0
2017-Aug-28 10:59N 37°25' E 025°19'0 0.0
2017-Aug-28 10:29N 37°25' E 025°19'0 0.0
2017-Aug-28 09:59N 37°25' E 025°19'0 0.0
2017-Aug-28 09:29N 37°25' E 025°19'0 0.0
2017-Aug-28 08:59N 37°25' E 025°19'0 0.0
2017-Aug-28 08:23N 37°25' E 025°19'0 0.0
2017-Aug-28 07:59N 37°25' E 025°19'0 0.0
2017-Aug-28 07:29N 37°25' E 025°19'0 0.0
2017-Aug-28 06:56N 37°25' E 025°19'0 0.0
2017-Aug-28 03:17N 37°25' E 025°19'0 0.0
2017-Aug-28 02:59N 37°25' E 025°19'0 0.0
2017-Aug-28 02:26N 37°25' E 025°19'0 0.0
2017-Aug-28 01:59N 37°25' E 025°19'0 0.0
2017-Aug-28 01:29N 37°25' E 025°19'0 0.0
2017-Aug-28 00:56N 37°25' E 025°19'0 0.0
2017-Aug-28 00:29N 37°25' E 025°19'0 0.0
2017-Aug-27 23:59N 37°25' E 025°19'0 0.0
2017-Aug-27 23:29N 37°25' E 025°19'0 0.0
2017-Aug-27 22:59N 37°25' E 025°19'0 0.0
2017-Aug-27 22:29N 37°25' E 025°19'0 0.0
2017-Aug-27 21:59N 37°25' E 025°19'0 0.0
2017-Aug-27 21:29N 37°25' E 025°19'0 0.0
2017-Aug-27 20:59N 37°25' E 025°19'0 0.0
2017-Aug-27 20:29N 37°25' E 025°19'0 0.0
2017-Aug-27 19:59N 37°25' E 025°19'0 0.0
2017-Aug-27 19:26N 37°25' E 025°19'0 0.0
2017-Aug-27 18:59N 37°25' E 025°19'0 0.0
2017-Aug-27 18:29N 37°25' E 025°19'0 0.0
2017-Aug-27 17:59N 37°25' E 025°19'0 0.0
2017-Aug-27 17:29N 37°25' E 025°19'0 0.0
2017-Aug-27 16:56N 37°25' E 025°19'0 0.0
2017-Aug-27 16:29N 37°25' E 025°19'0 0.0
2017-Aug-27 15:59N 37°25' E 025°19'0 0.0
2017-Aug-27 15:29N 37°25' E 025°19'0 0.0
2017-Aug-27 14:59N 37°25' E 025°19'0 0.0
2017-Aug-27 14:29N 37°25' E 025°19'0 0.0
2017-Aug-27 13:59N 37°25' E 025°19'0 0.0
2017-Aug-27 13:29N 37°25' E 025°19'0 0.0
2017-Aug-27 12:59N 37°25' E 025°19'0 0.0
2017-Aug-27 12:29N 37°25' E 025°19'0 0.0
2017-Aug-27 11:56N 37°25' E 025°19'0 0.0
2017-Aug-27 11:26N 37°25' E 025°19'0 0.0
2017-Aug-27 10:59N 37°25' E 025°19'0 0.0
2017-Aug-27 10:26N 37°25' E 025°19'0 0.0
2017-Aug-27 09:59N 37°25' E 025°19'0 0.0
2017-Aug-27 09:29N 37°25' E 025°19'0 0.0
2017-Aug-27 08:56N 37°25' E 025°19'0 0.0
2017-Aug-27 08:29N 37°25' E 025°19'0 0.0
2017-Aug-27 07:59N 37°25' E 025°19'0 0.0
2017-Aug-27 07:29N 37°25' E 025°19'0 0.0
2017-Aug-27 06:59N 37°25' E 025°19'0 0.0
2017-Aug-27 06:29N 37°25' E 025°19'0 0.0
2017-Aug-27 05:56N 37°25' E 025°19'0 0.0
2017-Aug-27 05:29N 37°25' E 025°19'0 0.0
2017-Aug-27 04:56N 37°25' E 025°19'0 0.0
2017-Aug-27 04:26N 37°25' E 025°19'0 0.0
2017-Aug-27 03:59N 37°25' E 025°19'0 0.0
2017-Aug-27 03:29N 37°25' E 025°19'0 0.0
2017-Aug-27 02:59N 37°25' E 025°19'0 0.0
2017-Aug-27 02:26N 37°25' E 025°19'0 0.0
2017-Aug-27 01:59N 37°25' E 025°19'0 0.0
2017-Aug-27 01:29N 37°25' E 025°19'0 0.0
2017-Aug-27 00:56N 37°25' E 025°19'0 0.0
2017-Aug-27 00:29N 37°25' E 025°19'0 0.0
2017-Aug-26 23:59N 37°25' E 025°19'0 0.0
2017-Aug-26 23:29N 37°25' E 025°19'0 0.0
2017-Aug-26 22:59N 37°25' E 025°19'0 0.0
2017-Aug-26 22:29N 37°25' E 025°19'0 0.0
2017-Aug-26 21:59N 37°25' E 025°19'0 0.0
2017-Aug-26 21:29N 37°25' E 025°19'0 0.0
2017-Aug-26 20:56N 37°25' E 025°19'0 0.0
2017-Aug-26 20:29N 37°25' E 025°19'0 0.0
2017-Aug-26 19:59N 37°25' E 025°19'0 0.0
2017-Aug-26 19:29N 37°25' E 025°19'0 0.0
2017-Aug-26 18:59N 37°25' E 025°19'0 0.0
2017-Aug-26 18:26N 37°25' E 025°19'0 0.0
2017-Aug-26 17:59N 37°25' E 025°19'0 0.0
2017-Aug-26 17:29N 37°25' E 025°19'0 0.0
2017-Aug-26 16:59N 37°25' E 025°19'0 0.0
2017-Aug-26 16:29N 37°25' E 025°19'0 0.0
2017-Aug-26 15:59N 37°25' E 025°19'0 0.0
2017-Aug-26 15:29N 37°25' E 025°19'0 0.0
2017-Aug-26 14:59N 37°25' E 025°19'0 0.0
2017-Aug-26 13:59N 37°25' E 025°19'0 0.0
2017-Aug-26 13:29N 37°25' E 025°19'0 0.0
2017-Aug-26 12:59N 37°25' E 025°19'0 0.0
2017-Aug-26 12:29N 37°25' E 025°19'0 0.0
2017-Aug-26 11:59N 37°25' E 025°19'0 0.0
2017-Aug-26 11:26N 37°25' E 025°19'0 0.0
2017-Aug-26 10:59N 37°25' E 025°19'0 0.0
2017-Aug-26 10:29N 37°25' E 025°19'0 0.0
2017-Aug-26 09:59N 37°25' E 025°19'0 0.0
2017-Aug-26 09:29N 37°25' E 025°19'0 0.0
2017-Aug-26 08:59N 37°25' E 025°19'0 0.0
2017-Aug-26 08:29N 37°25' E 025°19'0 0.0
2017-Aug-26 07:59N 37°25' E 025°19'0 0.0
2017-Aug-26 07:29N 37°25' E 025°19'0 0.0
2017-Aug-26 06:59N 37°25' E 025°19'0 0.0
2017-Aug-26 06:29N 37°25' E 025°19'0 0.0
2017-Aug-26 05:59N 37°25' E 025°19'0 0.0
2017-Aug-26 05:29N 37°25' E 025°19'0 0.0
2017-Aug-26 04:59N 37°25' E 025°19'0 0.0
2017-Aug-26 04:29N 37°25' E 025°19'0 0.0
2017-Aug-26 03:59N 37°25' E 025°19'0 0.0
2017-Aug-26 03:29N 37°25' E 025°19'0 0.0
2017-Aug-26 02:47N 37°25' E 025°19'0 0.0
2017-Aug-26 02:23N 37°25' E 025°19'0 0.0
2017-Aug-26 01:59N 37°25' E 025°19'0 0.0
2017-Aug-26 01:29N 37°25' E 025°19'0 0.0
2017-Aug-26 00:59N 37°25' E 025°19'0 0.0
2017-Aug-26 00:29N 37°25' E 025°19'0 0.0
2017-Aug-25 23:59N 37°25' E 025°19'0 0.0
2017-Aug-25 23:29N 37°25' E 025°19'0 0.0
2017-Aug-25 22:59N 37°25' E 025°19'0 0.0
2017-Aug-25 22:29N 37°25' E 025°19'0 0.0
2017-Aug-25 21:53N 37°25' E 025°19'0 0.0
2017-Aug-25 21:29N 37°25' E 025°19'  

Dump ship's entire track history